Flight Track Log - Related Links

Times and Time Zones

All times are in EDT time to prevent confusion due to time zone crossing. See the BBA27 flight status page for this flight to view local times or setup timezone preferences in your user account.

Time Position Orientation Groundspeed Altitude Reporting Facility
EDT Latitude Longitude Course Direction KTS MPH feet Rate Location/Type
Mon 06:12:14 PM 43.7667 -79.5000 334° Northwest 200 230 1,500  Level Toronto Center
Mon 06:13:14 PM 43.8167 -79.5333 334° Northwest 200 230 1,600 900 Climbing Toronto Center
Mon 06:14:14 PM 43.8667 -79.5667 334° Northwest 210 242 3,300 2,050 Climbing Toronto Center
Mon 06:15:14 PM 43.9333 -79.5667 360° North 230 265 5,700 2,600 Climbing Toronto Center
Mon 06:16:14 PM 44.0000 -79.5667 360° North 240 276 8,500 2,600 Climbing Toronto Center
Mon 06:17:14 PM 44.0667 -79.5333 20° North 250 288 10,900 1,750 Climbing Toronto Center
Mon 06:18:14 PM 44.1500 -79.5000 16° North 270 311 12,000 550 Climbing Toronto Center
Mon 06:19:14 PM 44.2333 -79.4500 23° Northeast 320 368 12,000  Level Toronto Center
Mon 06:20:14 PM 44.3167 -79.4000 23° Northeast 340 391 12,000  Level Toronto Center
Mon 06:21:14 PM 44.4000 -79.3833 North 340 391 12,000  Level Toronto Center
Mon 06:22:14 PM 44.5000 -79.3333 20° North 340 391 12,000  Level Toronto Center
Mon 06:23:14 PM 44.5833 -79.2833 23° Northeast 340 391 12,000  Level Toronto Center
Mon 06:24:14 PM 44.6667 -79.2333 23° Northeast 330 380 12,000  Level Toronto Center
Mon 06:25:14 PM 44.7667 -79.1833 20° North 340 391 12,000  Level Toronto Center
Mon 06:26:14 PM 44.8333 -79.1333 28° Northeast 330 380 12,000  Level Toronto Center
Mon 06:27:14 PM 44.9333 -79.1333 360° North 330 380 12,000  Level Toronto Center
Mon 06:28:14 PM 44.9833 -79.2000 317° Northwest 310 357 12,000  Level Toronto Center
Mon 06:29:14 PM 45.0667 -79.2333 344° North 290 334 12,000  Level Toronto Center
Mon 06:30:14 PM 45.1333 -79.2000 19° North 250 288 12,000  Level Toronto Center
Mon 06:31:14 PM 45.1833 -79.1833 13° North 230 265 12,000  Level Toronto Center
Mon 06:32:14 PM 45.2500 -79.1667 10° North 230 265 12,000  Level Toronto Center
Mon 06:33:14 PM 45.3000 -79.1167 35° Northeast 220 253 12,000  Level Toronto Center
Mon 06:34:14 PM 45.3667 -79.0833 19° North 220 253 12,000  Level Toronto Center
Mon 06:35:14 PM 45.4167 -79.0333 35° Northeast 220 253 12,000  Level Toronto Center
Mon 06:36:14 PM 45.4833 -79.0167 10° North 220 253 12,000  Level Toronto Center
Mon 06:37:14 PM 45.5333 -78.9833 25° Northeast 230 265 12,000  Level Toronto Center
Mon 06:38:14 PM 45.6000 -78.9333 28° Northeast 230 265 12,000  Level Toronto Center
Mon 06:39:14 PM 45.6500 -78.9000 25° Northeast 240 276 12,000  Level Toronto Center
Mon 06:40:14 PM 45.7167 -78.8667 19° North 250 288 12,000  Level Toronto Center
Mon 06:41:14 PM 45.7833 -78.8167 28° Northeast 260 299 12,000  Level Toronto Center
Mon 06:42:14 PM 45.8167 -78.7167 64° Northeast 260 299 12,000  Level Toronto Center
Mon 06:43:14 PM 45.8333 -78.6333 74° East 270 311 12,000  Level Toronto Center
Mon 06:44:14 PM 45.7833 -78.5500 131° Southeast 250 288 12,000  Level Toronto Center
Mon 06:45:14 PM 45.7167 -78.5500 180° South 240 276 12,000  Level Toronto Center
Mon 06:46:14 PM 45.7000 -78.6500 257° West 230 265 12,000  Level Toronto Center
Mon 06:47:14 PM 45.7500 -78.7000 325° Northwest 230 265 12,000  Level Toronto Center
Mon 06:48:14 PM 45.8167 -78.7167 350° North 250 288 12,000  Level Toronto Center
Mon 06:49:14 PM 45.8833 -78.7167 360° North 250 288 12,000 50 Level Toronto Center
Mon 06:50:14 PM 45.9500 -78.7500 341° North 250 288 12,100 900 Climbing Toronto Center
Mon 06:51:14 PM 46.0167 -78.7500 360° North 260 299 13,800 950 Climbing Toronto Center
Mon 06:52:14 PM 46.1000 -78.7667 352° North 290 334 14,000 100 Climbing Toronto Center
Mon 06:53:14 PM 46.1667 -78.7833 350° North 270 311 14,000  Level Toronto Center
Mon 06:54:14 PM 46.2333 -78.7167 35° Northeast 250 288 14,000 -300 Level Toronto Center
Mon 06:55:14 PM 46.2500 -78.6500 70° East 230 265 13,400 -850 Descending Toronto Center
Mon 06:56:14 PM 46.2833 -78.5667 60° Northeast 190 219 12,300 250 Descending Toronto Center
Mon 06:57:14 PM 46.3167 -78.5000 54° Northeast 220 253 13,900 350 Climbing Toronto Center
Mon 06:58:14 PM 46.3333 -78.4167 74° East 200 230 13,000 50 Descending Toronto Center
Mon 06:59:14 PM 46.3500 -78.3500 70° East 240 276 14,000 50 Climbing Toronto Center
Mon 07:00:14 PM 46.3833 -78.2833 54° Northeast 220 253 13,100 -750 Descending Toronto Center
Mon 07:01:14 PM 46.4167 -78.1833 64° Northeast 240 276 12,500 -550 Descending Toronto Center
Mon 07:02:14 PM 46.4333 -78.0833 76° East 260 299 12,000 -250 Descending Toronto Center
Mon 07:03:14 PM 46.3833 -78.0833 180° South 230 265 12,000  Level Toronto Center
Mon 07:04:14 PM 46.3667 -78.1500 250° West 230 265 12,000  Level Toronto Center
Mon 07:05:14 PM 46.3667 -78.2833 270° West 270 311 12,000  Level Toronto Center
Mon 07:06:14 PM 46.3667 -78.4000 270° West 290 334 12,000  Level Toronto Center
Mon 07:07:14 PM 46.3833 -78.5167 282° West 300 345 12,000  Level Toronto Center
Mon 07:08:14 PM 46.3667 -78.6333 258° West 300 345 12,000 -150 Level Toronto Center
Mon 07:09:14 PM 46.3500 -78.7667 260° West 300 345 11,700 -600 Descending Toronto Center
Mon 07:10:14 PM 46.3333 -78.8833 258° West 300 345 10,800 -900 Descending Toronto Center
Mon 07:11:14 PM 46.3167 -78.9500 250° West 250 288 9,900 -1,000 Descending Toronto Center
Mon 07:12:14 PM 46.3000 -79.0833 260° West 260 299 8,800 -1,150 Descending Toronto Center
Mon 07:13:14 PM 46.2833 -79.1667 254° West 260 299 7,600 -1,100 Descending Toronto Center
Mon 07:14:14 PM 46.2667 -79.2667 256° West 250 288 6,600 -1,100 Descending Toronto Center
Mon 07:15:14 PM 46.2333 -79.3667 244° Southwest 230 265 5,400 -800 Descending Toronto Center
Mon 07:16:14 PM 46.2167 -79.4333 250° West 210 242 5,000 -200 Descending Toronto Center
Mon 07:17:14 PM 46.2000 -79.5167 254° West 200 230 5,000  Level Toronto Center
Mon 07:18:14 PM 46.2167 -79.5667 296° West 210 242 5,000 -450 Level Toronto Center
Mon 07:19:14 PM 46.2833 -79.5833 350° North 200 230 4,100 -950 Descending Toronto Center
Mon 07:20:14 PM 46.3167 -79.5333 46° Northeast 170 196 3,100 -950 Descending Toronto Center
Mon 07:21:14 PM 46.3167 -79.4833 90° East 140 161 2,200 -800 Descending Toronto Center
Mon 07:22:14 PM 46.3333 -79.4333 64° Northeast 140 161 1,500 400 Descending Toronto Center
Mon 07:23:14 PM 46.3667 -79.3833 46° Northeast 160 184 3,000 1,250 Climbing Toronto Center
Mon 07:24:14 PM 46.4167 -79.3833 360° North 210 242 4,000 500 Climbing Toronto Center
Mon 07:25:14 PM 46.4000 -79.4667 254° West 200 230 4,000  Level Toronto Center
Mon 07:26:14 PM 46.3833 -79.5333 250° West 200 230 4,000  Level Toronto Center
Mon 07:27:14 PM 46.3667 -79.6000 250° West 190 219 4,000  Level Toronto Center
Mon 07:28:14 PM 46.3333 -79.6833 240° Southwest 200 230 4,000  Level Toronto Center
Mon 07:29:14 PM 46.2833 -79.6833 180° South 190 219 4,000 -150 Level Toronto Center
Mon 07:30:14 PM 46.2833 -79.5833 90° East 200 230 3,700 -600 Descending Toronto Center
Mon 07:31:14 PM 46.3167 -79.5333 46° Northeast 180 207 2,800 -850 Descending Toronto Center
Mon 07:32:14 PM 46.3333 -79.4833 64° Northeast 150 173 2,000 -650 Descending Toronto Center
Mon 07:33:14 PM 46.3500 -79.4333 64° Northeast 140 161 1,500 900 Descending Toronto Center
Mon 07:34:14 PM 46.3667 -79.3667 70° East 190 219 3,800 1,250 Climbing Toronto Center
Mon 07:35:14 PM 46.4333 -79.3667 360° North 230 265 4,000 100 Climbing Toronto Center
Mon 07:36:14 PM 46.4333 -79.4333 270° West 210 242 4,000  Level Toronto Center
Mon 07:37:14 PM 46.4167 -79.5167 254° West 210 242 4,000  Level Toronto Center
Mon 07:38:14 PM 46.3833 -79.5833 234° Southwest 200 230 4,000  Level Toronto Center
Mon 07:39:14 PM 46.3500 -79.6500 234° Southwest 200 230 4,000  Level Toronto Center
Mon 07:40:14 PM 46.3000 -79.6833 205° Southwest 210 242 4,000 -50 Level Toronto Center
Mon 07:41:14 PM 46.2833 -79.6000 106° East 210 242 3,900 -550 Descending Toronto Center
Mon 07:42:14 PM 46.3167 -79.5333 54° Northeast 210 242 2,900 -1,000 Descending Toronto Center
Mon 07:43:14 PM 46.3333 -79.4667 70° East 180 207 1,900 -800 Descending Toronto Center
Mon 07:44:14 PM 46.3500 -79.4167 64° Northeast 150 173 1,300 900 Descending Toronto Center
Mon 07:45:14 PM 46.3667 -79.3500 70° East 190 219 3,700 2,550 Climbing Toronto Center
Mon 07:46:14 PM 46.4000 -79.2667 60° Northeast 230 265 6,400 3,000 Climbing Toronto Center
Mon 07:47:14 PM 46.4333 -79.1667 64° Northeast 240 276 9,700 2,950 Climbing Toronto Center
Mon 07:48:14 PM 46.4667 -79.1000 54° Northeast 240 276 12,300 2,600 Climbing Toronto Center
Mon 07:49:14 PM 46.4833 -79.0000 76° East 250 288 14,900 2,400 Climbing Toronto Center
Mon 07:50:14 PM 46.5167 -78.9000 64° Northeast 250 288 17,100 2,200 Climbing Toronto Center
Mon 07:51:14 PM 46.5000 -78.8167 106° East 250 288 19,300 1,900 Climbing Toronto Center
Mon 07:52:14 PM 46.4833 -78.7167 104° East 260 299 20,900 1,700 Climbing Toronto Center
Mon 07:53:14 PM 46.4500 -78.5833 110° East 270 311 22,700 1,650 Climbing Toronto Center
Mon 07:54:14 PM 46.4333 -78.5000 106° East 270 311 24,200 1,150 Climbing Toronto Center
Mon 07:55:14 PM 46.4000 -78.4000 116° Southeast 280 322 25,000 400 Climbing Toronto Center
Mon 07:56:14 PM 46.3833 -78.2500 99° East 320 368 25,000  Level Toronto Center
Mon 07:57:14 PM 46.3667 -78.1167 100° East 360 414 25,000  Level Toronto Center
Mon 07:58:14 PM 46.3333 -77.9667 108° East 380 437 25,000  Level Toronto Center
Mon 07:59:14 PM 46.3000 -77.8167 108° East 380 437 25,000  Level Toronto Center
Mon 08:00:14 PM 46.2667 -77.6833 110° East 380 437 25,000  Level Toronto Center
Mon 08:01:14 PM 46.1833 -77.6833 180° South 330 380 25,000  Level Toronto Center
Mon 08:02:14 PM 46.1500 -77.8000 248° West 320 368 25,000  Level Toronto Center
Mon 08:03:14 PM 46.1333 -77.9167 258° West 320 368 25,000  Level Toronto Center
Mon 08:04:14 PM 46.1000 -78.0500 250° West 320 368 25,000  Level Toronto Center
Mon 08:05:13 PM 46.0167 -78.1000 203° Southwest 320 368 25,000  Level Toronto Center
Mon 08:06:13 PM 45.9333 -78.1167 188° South 330 380 25,000  Level Toronto Center
Mon 08:07:14 PM 45.8333 -78.1667 199° South 330 380 25,000  Level Toronto Center
Mon 08:08:13 PM 45.7500 -78.2167 203° Southwest 340 391 25,000  Level Toronto Center
Mon 08:09:13 PM 45.6500 -78.2500 193° South 340 391 25,000  Level Toronto Center
Mon 08:10:13 PM 45.5667 -78.3000 203° Southwest 340 391 25,000  Level Toronto Center
Mon 08:11:13 PM 45.4833 -78.3167 188° South 330 380 25,000  Level Toronto Center
Mon 08:12:14 PM 45.4167 -78.4167 226° Southwest 320 368 25,000  Level Toronto Center
Mon 08:13:13 PM 45.3500 -78.5000 221° Southwest 330 380 25,000  Level Toronto Center
Mon 08:14:13 PM 45.2667 -78.5167 188° South 340 391 25,000  Level Toronto Center
Mon 08:15:13 PM 45.1667 -78.5667 199° South 340 391 25,000  Level Toronto Center
Mon 08:16:14 PM 45.0833 -78.6000 196° South 340 391 25,000 -250 Level Toronto Center
Mon 08:17:13 PM 45.0000 -78.6500 203° Southwest 340 391 24,500 -756 Descending Toronto Center
Mon 08:18:13 PM 44.9000 -78.6833 193° South 340 391 23,500 -1,950 Descending Toronto Center
Mon 08:19:13 PM 44.8167 -78.7333 203° Southwest 350 403 20,600 -3,100 Descending Toronto Center
Mon 08:20:13 PM 44.7167 -78.7833 200° South 360 414 17,300 -1,884 Descending Toronto Center
Mon 08:21:14 PM 44.6333 -78.8333 203° Southwest 340 391 16,800 -1,350 Descending Toronto Center
Mon 08:22:13 PM 44.5667 -78.8667 200° South 280 322 14,600 -2,168 Descending Toronto Center
Mon 08:23:13 PM 44.4833 -78.9000 196° South 270 311 12,500 -2,000 Descending Toronto Center
Mon 08:24:13 PM 44.4167 -78.9333 200° South 260 299 10,600 -2,000 Descending Toronto Center
Mon 08:25:13 PM 44.3500 -78.9833 208° Southwest 250 288 8,500 -1,934 Descending Toronto Center
Mon 08:26:14 PM 44.3000 -79.0000 193° South 240 276 6,700 -1,686 Descending Toronto Center
Mon 08:27:14 PM 44.2667 -79.0667 235° Southwest 230 265 5,100 -850 Descending Toronto Center
Mon 08:28:14 PM 44.2333 -79.1500 241° Southwest 230 265 5,000 -50 Descending Toronto Center
Mon 08:29:14 PM 44.2000 -79.2167 235° Southwest 230 265 5,000 -100 Level Toronto Center
Mon 08:30:14 PM 44.1500 -79.3000 230° Southwest 230 265 4,800 -500 Descending Toronto Center
Mon 08:31:14 PM 44.1167 -79.3833 241° Southwest 240 276 4,000 -850 Descending Toronto Center
Mon 08:32:14 PM 44.0833 -79.4500 235° Southwest 220 253 3,100 -500 Descending Toronto Center
Mon 08:33:14 PM 44.0667 -79.5167 251° West 210 242 3,000 -50 Descending Toronto Center
Mon 08:34:14 PM 44.0333 -79.5833 235° Southwest 210 242 3,000  Level Toronto Center
Mon 08:35:14 PM 43.9667 -79.6167 200° South 210 242 3,000 -100 Level Toronto Center
Mon 08:36:14 PM 43.9167 -79.5833 154° Southeast 210 242 2,800 -400 Descending Toronto Center
Mon 08:37:14 PM 43.8667 -79.5667 166° South 190 219 2,200 -555 Descending Toronto Center
Mon 08:38:13 PM 43.8167 -79.5167 144° Southeast 190 219 1,700 -303 Descending Toronto Center
Mon 08:39:13 PM 43.7833 -79.5000 160° South 150 173 1,600 -250 Descending Toronto Center
Mon 08:40:13 PM 43.7500 -79.4667 144° Southeast 110 127 1,200 -446 Descending Toronto Center
Mon 08:41:14 PM 43.7333 -79.4500 144° Southeast 110 127 700 -492 Descending Toronto Center

Login

Don't have an account? Register now (free) for customized features, flight alerts, and more!